Airfield :







YOU CAN JOIN US ON...

 
LOGIN :

Register | Disclaimer

   EN    FR    IT 

 









Legend :    VFR   Marginal VFR   IFR   Intensive IFR   Very Intensive IFR
Visi :
Ceiling :
>= 8 km
>= 3000ft
5 to 8 km
1000 to 3000 ft
1500m to 5 km
500 to 1000 ft
800 to 1500m
200 to 500 ft
< 800m
< 200 ft
Symbols :   Thunderstorms  Fog  Heavy snow  Heavy precipitations  Wind > 20 kt







- Airport Elevation : 148 ft


KLWM - Lawrence Municipal

CURRENT METAR :
  • 210626Z AUTO 21010KT 5SM -RA BR BKN005 OVC011 16/14 A2996 RMK AO2 P0004 T01560144

EXPIRED METARs :
  • 210615Z AUTO 22009KT 2SM RA BR BKN005 OVC008 16/15 A2996 RMK AO2 P0004 T01560150
  • 210554Z AUTO 19004KT 2SM -RA BR BKN007 OVC012 17/16 A2994 RMK AO2 RAB14 SLP139 P0005 60007 T01670156 10183 20167 55009
  • 210549Z AUTO 14003KT 2SM RA BR BKN007 OVC013 17/16 A2993 RMK AO2 RAB14 P0005
  • 210506Z AUTO VRB03KT 10SM OVC008 17/16 A2995 RMK AO2 CIG 007V011 T01720156
  • 210454Z AUTO VRB05KT 10SM OVC010 17/16 A2995 RMK AO2 RAE00 CIG 008V014 SLP143 P0000 T01720156 402220172
  • 210428Z AUTO VRB04KT 10SM BKN010 OVC014 17/16 A2995 RMK AO2 RAE00 CIG 007V012 P0000 T01720156
  • 210354Z AUTO VRB06KT 7SM -RA OVC009 17/16 A2997 RMK AO2 RAB51 CIG 008V012 SLP148 P0000 T01720161

TAF N/A
KZBW FIR / North America



MET'MAP, your aeronautical weather chart ! - Copyright ORBIFLY December 2007 - Disclaimer

ORBIFLY MET'MAP TEAM :

Programming & Development : Alexandra Zaïnal
Concept & Development : Baudouin d'Aumeries
Co-Development & Prog : Marc-Olivier Méhu
Technical & hardware support : Manuel Goepfert

Contact : metmap@orbifly.com




SOURCES & CREDITS :

   NOAA